Terminal Aerodrome Forecast
Issued by NWS

Home | Current Version | Previous Version | Text Only | Print | Product List | Glossary On
Versions: 1 2 3 4 5 6 7 8 9 10 11 12
928
FTUS43 KMQT 171731
TAFCMX
TAF
KCMX 171731Z 1718/1818 VRB03KT P6SM SCT070
     FM180300 25008KT P6SM SCT020
     FM181000 25011G18KT P6SM SCT120
     FM181300 25011G23KT P6SM SCT150=

USA.gov is the U.S. government's official web portal to all federal, state and local government web resources and services.